createdAt,value
2022-09-21T00:01:36.432Z,102120.22
2022-09-21T00:04:05.023Z,102116.72
2022-09-21T00:06:35.084Z,102117.13
2022-09-21T00:09:05.061Z,102114.31
2022-09-21T00:11:35.948Z,102124.69
2022-09-21T00:14:08.931Z,102119.09
2022-09-21T00:16:41.682Z,102119.34
2022-09-21T00:19:10.260Z,102116.78
2022-09-21T00:21:38.273Z,102117.28
2022-09-21T00:24:10.134Z,102116.16
2022-09-21T00:26:39.579Z,102111.00
2022-09-21T00:29:09.981Z,102112.75
2022-09-21T00:31:37.781Z,102123.06
2022-09-21T00:34:07.991Z,102122.78
2022-09-21T00:36:35.943Z,102125.81
2022-09-21T00:39:04.259Z,102124.03
2022-09-21T00:41:36.084Z,102117.28
2022-09-21T00:44:29.982Z,102113.84
2022-09-21T00:47:03.854Z,102115.50
2022-09-21T00:49:33.948Z,102116.72
2022-09-21T00:52:06.699Z,102119.41
2022-09-21T00:54:43.809Z,102128.03
2022-09-21T00:57:11.445Z,102126.84
2022-09-21T00:59:40.043Z,102126.44
2022-09-21T01:02:09.827Z,102123.56
2022-09-21T01:04:42.853Z,102126.41
2022-09-21T01:07:18.405Z,102133.47
2022-09-21T01:09:50.850Z,102129.75
2022-09-21T01:12:45.024Z,102127.25
2022-09-21T01:15:29.927Z,102138.31
2022-09-21T01:18:12.270Z,102129.69
2022-09-21T01:21:11.466Z,102132.75
2022-09-21T01:23:52.459Z,102128.09
2022-09-21T01:26:37.617Z,102137.09
2022-09-21T01:29:23.904Z,102141.03
2022-09-21T01:32:21.012Z,102136.00
2022-09-21T01:35:11.255Z,102136.00
2022-09-21T01:38:15.101Z,102135.56
2022-09-21T01:40:47.144Z,102139.34
2022-09-21T01:43:32.225Z,102129.25
2022-09-21T01:46:04.275Z,102132.59
2022-09-21T01:48:39.486Z,102146.00
2022-09-21T01:51:10.899Z,102136.53
2022-09-21T01:53:45.317Z,102140.81
2022-09-21T01:56:30.875Z,102139.09
2022-09-21T01:59:18.420Z,102137.16
2022-09-21T02:01:55.363Z,102140.81
2022-09-21T02:04:22.579Z,102142.41
2022-09-21T02:06:51.217Z,102143.88
2022-09-21T02:09:21.164Z,102150.66
2022-09-21T02:11:48.377Z,102152.25
2022-09-21T02:14:24.766Z,102144.63
2022-09-21T02:17:03.569Z,102151.41
2022-09-21T02:19:50.612Z,102148.56
2022-09-21T02:22:46.320Z,102145.75
2022-09-21T02:25:48.194Z,102141.19
2022-09-21T02:28:27.443Z,102145.84
2022-09-21T02:31:10.181Z,102146.59
2022-09-21T02:33:57.639Z,102153.59
2022-09-21T02:36:47.746Z,102153.47
2022-09-21T02:39:44.970Z,102152.38
2022-09-21T02:42:22.088Z,102151.00
2022-09-21T02:45:10.323Z,102155.31
2022-09-21T02:47:50.719Z,102148.56
2022-09-21T02:50:45.014Z,102148.56
2022-09-21T02:53:17.490Z,102152.97
2022-09-21T02:55:46.869Z,102152.72
2022-09-21T02:58:21.191Z,102152.84
2022-09-21T03:00:50.798Z,102158.63
2022-09-21T03:03:22.123Z,102159.97
2022-09-21T03:05:52.743Z,102164.28
2022-09-21T03:08:21.334Z,102160.09
2022-09-21T03:10:50.920Z,102169.41
2022-09-21T03:13:20.812Z,102161.91
2022-09-21T03:15:48.033Z,102168.41
2022-09-21T03:18:17.579Z,102162.78
2022-09-21T03:20:48.624Z,102161.28
2022-09-21T03:23:15.858Z,102173.81
2022-09-21T03:25:46.346Z,102172.19
2022-09-21T03:28:16.693Z,102173.03
2022-09-21T03:30:45.775Z,102174.97
2022-09-21T03:33:13.118Z,102167.78
2022-09-21T03:35:43.243Z,102174.38
2022-09-21T03:38:10.270Z,102172.28
2022-09-21T03:40:39.965Z,102168.41
2022-09-21T03:43:09.540Z,102175.50
2022-09-21T03:45:38.157Z,102189.22
2022-09-21T03:48:05.357Z,102168.41
2022-09-21T03:50:35.278Z,102176.75
2022-09-21T03:53:02.334Z,102174.34
2022-09-21T03:55:29.964Z,102179.91
2022-09-21T03:57:56.998Z,102183.94
2022-09-21T04:00:24.014Z,102182.16
2022-09-21T04:02:57.111Z,102185.84
2022-09-21T04:05:27.800Z,102188.16
2022-09-21T04:08:02.607Z,102179.47
2022-09-21T04:10:33.357Z,102185.50
2022-09-21T04:13:04.370Z,102184.72
2022-09-21T04:15:33.731Z,102185.50
2022-09-21T04:18:00.762Z,102188.97
2022-09-21T04:20:30.409Z,102186.59
2022-09-21T04:22:58.218Z,102189.50
2022-09-21T04:25:26.866Z,102187.03
2022-09-21T04:27:54.516Z,102183.41
2022-09-21T04:30:33.229Z,102190.69
2022-09-21T04:33:04.324Z,102193.16
2022-09-21T04:35:34.025Z,102195.22
2022-09-21T04:38:03.556Z,102189.50
2022-09-21T04:40:33.135Z,102194.56
2022-09-21T04:43:02.820Z,102192.72
2022-09-21T04:45:32.638Z,102193.41
2022-09-21T04:48:00.597Z,102195.84
2022-09-21T04:50:28.253Z,102198.56
2022-09-21T04:53:01.375Z,102197.34
2022-09-21T04:55:31.728Z,102202.22
2022-09-21T04:57:58.754Z,102198.69
2022-09-21T05:00:29.630Z,102205.13
2022-09-21T05:02:57.104Z,102207.94
2022-09-21T05:05:34.604Z,102207.94
2022-09-21T05:08:02.258Z,102212.13
2022-09-21T05:10:30.608Z,102207.66
2022-09-21T05:12:59.876Z,102213.69
2022-09-21T05:15:29.900Z,102211.72
2022-09-21T05:17:57.990Z,102214.03
2022-09-21T05:20:25.362Z,102218.03
2022-09-21T05:22:52.958Z,102217.34
2022-09-21T05:25:20.597Z,102218.34
2022-09-21T05:28:03.009Z,102227.88
2022-09-21T05:30:30.734Z,102220.06
2022-09-21T05:33:03.976Z,102222.47
2022-09-21T05:36:37.867Z,102228.03
2022-09-21T05:39:08.882Z,102233.97
2022-09-21T05:41:36.708Z,102235.00
2022-09-21T05:44:12.020Z,102226.53
2022-09-21T05:46:44.192Z,102232.41
2022-09-21T05:49:47.855Z,102230.28
2022-09-21T05:52:39.697Z,102239.44
2022-09-21T05:56:00.903Z,102235.69
2022-09-21T05:59:20.298Z,102231.91
2022-09-21T06:03:01.460Z,102231.16
2022-09-21T06:05:36.688Z,102226.66
2022-09-21T06:08:06.837Z,102230.88
2022-09-21T06:10:35.648Z,102236.22
2022-09-21T06:13:05.228Z,102231.91
2022-09-21T06:15:41.252Z,102235.19
2022-09-21T06:18:12.155Z,102237.88
2022-09-21T06:20:41.547Z,102230.66
2022-09-21T06:23:11.702Z,102234.72
2022-09-21T06:25:41.312Z,102237.28
2022-09-21T06:28:16.578Z,102243.34
2022-09-21T06:30:49.561Z,102236.97
2022-09-21T06:33:20.794Z,102237.44
2022-09-21T06:36:01.832Z,102246.50
2022-09-21T06:38:31.992Z,102248.22
2022-09-21T06:41:06.796Z,102239.94
2022-09-21T06:43:37.934Z,102229.66
2022-09-21T06:46:05.971Z,102242.16
2022-09-21T06:48:35.968Z,102240.72
2022-09-21T06:51:10.805Z,102248.47
2022-09-21T06:53:39.588Z,102246.03
2022-09-21T06:56:12.787Z,102247.69
2022-09-21T06:58:45.225Z,102242.81
2022-09-21T07:01:19.273Z,102248.22
2022-09-21T07:03:55.825Z,102249.41
2022-09-21T07:06:32.055Z,102259.16
2022-09-21T07:11:47.487Z,102265.78
2022-09-21T07:14:19.920Z,102262.78
2022-09-21T07:16:51.647Z,102265.25
2022-09-21T07:19:21.195Z,102253.78
2022-09-21T07:21:58.053Z,102260.22
2022-09-21T07:24:25.290Z,102263.25
2022-09-21T07:26:55.369Z,102262.44
2022-09-21T07:29:25.643Z,102268.69
2022-09-21T07:31:55.485Z,102264.59
2022-09-21T07:34:22.778Z,102267.03
2022-09-21T07:36:51.860Z,102267.19
2022-09-21T07:39:19.166Z,102273.09
2022-09-21T07:41:50.861Z,102269.44
2022-09-21T07:44:22.698Z,102280.78
2022-09-21T07:46:50.345Z,102279.72
2022-09-21T07:49:23.059Z,102264.75
2022-09-21T07:51:50.279Z,102268.41
2022-09-21T07:54:17.433Z,102274.97
2022-09-21T07:57:04.627Z,102276.84
2022-09-21T07:59:33.039Z,102279.78
2022-09-21T08:02:09.991Z,102285.00
2022-09-21T08:04:57.031Z,102279.66
2022-09-21T08:07:24.252Z,102284.31
2022-09-21T08:09:51.497Z,102284.50
2022-09-21T08:12:21.234Z,102281.41
2022-09-21T08:14:49.687Z,102288.00
2022-09-21T08:17:19.701Z,102283.75
2022-09-21T08:19:47.980Z,102282.69
2022-09-21T08:22:15.164Z,102281.72
2022-09-21T08:24:46.295Z,102280.47
2022-09-21T08:27:21.589Z,102285.34
2022-09-21T08:29:51.973Z,102281.81
2022-09-21T08:32:49.927Z,102286.00
2022-09-21T08:35:19.251Z,102294.16
2022-09-21T08:37:53.659Z,102283.66
2022-09-21T08:40:24.165Z,102282.38
2022-09-21T08:43:02.457Z,102285.88
2022-09-21T08:45:47.998Z,102284.28
2022-09-21T08:48:28.459Z,102283.53
2022-09-21T08:51:02.914Z,102287.59
2022-09-21T08:53:48.498Z,102288.66
2022-09-21T08:56:22.664Z,102285.19
2022-09-21T08:58:52.646Z,102288.16
2022-09-21T09:01:39.718Z,102290.66
2022-09-21T09:04:57.237Z,102292.34
2022-09-21T09:08:09.209Z,102288.59
2022-09-21T09:11:08.563Z,102300.41
2022-09-21T09:14:21.886Z,102297.06
2022-09-21T09:17:39.310Z,102295.50
2022-09-21T09:20:40.280Z,102297.44
2022-09-21T09:23:21.773Z,102296.94
2022-09-21T09:25:55.027Z,102298.34
2022-09-21T09:28:34.033Z,102299.66
2022-09-21T09:31:31.814Z,102302.59
2022-09-21T09:34:30.834Z,102295.53
2022-09-21T09:37:16.383Z,102298.13
2022-09-21T09:39:55.330Z,102306.84
2022-09-21T09:42:46.257Z,102294.63
2022-09-21T09:45:48.319Z,102292.31
2022-09-21T09:48:54.428Z,102301.00
2022-09-21T09:51:27.348Z,102299.97
2022-09-21T09:54:06.877Z,102294.56
2022-09-21T09:56:42.341Z,102286.84
2022-09-21T09:59:30.947Z,102290.75
2022-09-21T10:02:26.021Z,102288.03
2022-09-21T10:05:09.180Z,102288.00
2022-09-21T10:07:45.178Z,102288.44
2022-09-21T10:10:39.340Z,102282.84
2022-09-21T10:13:25.098Z,102279.94
2022-09-21T10:15:55.170Z,102285.50
2022-09-21T10:19:03.066Z,102277.88
2022-09-21T10:21:48.800Z,102277.59
2022-09-21T10:24:38.827Z,102267.63
2022-09-21T10:27:14.167Z,102272.63
2022-09-21T10:29:50.082Z,102272.47
2022-09-21T10:32:23.152Z,102271.19
2022-09-21T10:35:15.300Z,102270.88
2022-09-21T10:37:54.037Z,102270.72
2022-09-21T10:40:21.408Z,102269.84
2022-09-21T10:42:58.692Z,102266.97
2022-09-21T10:45:30.933Z,102279.13
2022-09-21T10:48:19.176Z,102276.13
2022-09-21T10:50:51.930Z,102281.09
2022-09-21T10:53:32.001Z,102270.59
2022-09-21T10:56:18.755Z,102278.13
2022-09-21T10:59:24.481Z,102263.81
2022-09-21T11:02:02.948Z,102270.28
2022-09-21T11:04:48.461Z,102272.91
2022-09-21T11:07:19.740Z,102270.00
2022-09-21T11:09:59.008Z,102268.22
2022-09-21T11:12:43.198Z,102265.44
2022-09-21T11:15:34.036Z,102267.19
2022-09-21T11:18:21.787Z,102259.44
2022-09-21T11:20:59.673Z,102260.50
2022-09-21T11:23:44.936Z,102258.97
2022-09-21T11:26:33.154Z,102254.25
2022-09-21T11:29:17.745Z,102262.34
2022-09-21T11:32:23.122Z,102259.16
2022-09-21T11:35:27.937Z,102265.72
2022-09-21T11:38:33.706Z,102259.25
2022-09-21T11:41:27.825Z,102267.44
2022-09-21T11:44:17.390Z,102254.31
2022-09-21T11:47:26.516Z,102257.72
2022-09-21T11:50:30.902Z,102263.50
2022-09-21T11:54:17.888Z,102259.00
2022-09-21T11:56:54.475Z,102249.44
2022-09-21T11:59:57.757Z,102245.91
2022-09-21T12:02:31.596Z,102242.59
2022-09-21T12:05:25.851Z,102241.59
2022-09-21T12:07:58.888Z,102241.78
2022-09-21T12:11:06.462Z,102235.41
2022-09-21T12:13:45.478Z,102227.19
2022-09-21T12:16:26.351Z,102220.44
2022-09-21T12:19:12.145Z,102224.66
2022-09-21T12:21:50.017Z,102226.38
2022-09-21T12:24:45.430Z,102226.53
2022-09-21T12:28:05.543Z,102223.81
2022-09-21T12:30:34.586Z,102215.00
2022-09-21T12:33:35.719Z,102225.00
2022-09-21T12:36:17.128Z,102210.50
2022-09-21T12:39:16.286Z,102214.25
2022-09-21T12:42:02.116Z,102209.19
2022-09-21T12:44:57.406Z,102215.75
2022-09-21T12:47:30.046Z,102212.41
2022-09-21T12:50:34.189Z,102208.72
2022-09-21T12:53:04.696Z,102197.38
2022-09-21T12:56:16.519Z,102205.97
2022-09-21T12:59:23.050Z,102211.25
2022-09-21T13:01:57.132Z,102206.84
2022-09-21T13:04:45.770Z,102206.25
2022-09-21T13:07:34.712Z,102202.16
2022-09-21T13:10:31.709Z,102204.06
2022-09-21T13:13:03.580Z,102202.88
2022-09-21T13:15:47.708Z,102203.00
2022-09-21T13:18:35.106Z,102206.19
2022-09-21T13:21:20.419Z,102201.56
2022-09-21T13:24:01.577Z,102202.72
2022-09-21T13:26:43.493Z,102204.16
2022-09-21T13:29:19.973Z,102202.47
2022-09-21T13:32:01.076Z,102189.41
2022-09-21T13:34:35.690Z,102185.63
2022-09-21T13:37:11.683Z,102188.31
2022-09-21T13:39:55.732Z,102192.03
2022-09-21T13:42:47.602Z,102186.53
2022-09-21T13:45:20.761Z,102174.00
2022-09-21T13:47:59.036Z,102176.88
2022-09-21T13:50:39.927Z,102171.75
2022-09-21T13:53:21.340Z,102180.09
2022-09-21T13:56:01.569Z,102172.81
2022-09-21T13:58:36.771Z,102168.66
2022-09-21T14:01:46.379Z,102162.53
2022-09-21T14:04:36.791Z,102165.66
2022-09-21T14:07:08.733Z,102171.72
2022-09-21T14:09:51.681Z,102162.41
2022-09-21T14:12:25.761Z,102158.34
2022-09-21T14:15:20.193Z,102157.81
2022-09-21T14:18:11.852Z,102156.09
2022-09-21T14:20:39.766Z,102147.84
2022-09-21T14:23:19.879Z,102156.22
2022-09-21T14:25:54.162Z,102150.88
2022-09-21T14:28:33.923Z,102155.56
2022-09-21T14:31:08.514Z,102147.84
2022-09-21T14:33:59.482Z,102143.53
2022-09-21T14:36:50.364Z,102130.91
2022-09-21T14:39:32.070Z,102142.59
2022-09-21T14:42:15.814Z,102133.16
2022-09-21T14:44:43.462Z,102136.44
2022-09-21T14:47:28.838Z,102137.38
2022-09-21T14:50:27.105Z,102134.03
2022-09-21T14:53:52.272Z,102139.72
2022-09-21T14:57:08.687Z,102131.41
2022-09-21T15:00:14.943Z,102123.28
2022-09-21T15:02:49.700Z,102121.13
2022-09-21T15:05:35.209Z,102119.94
2022-09-21T15:08:33.085Z,102112.59
2022-09-21T15:11:07.469Z,102118.28
2022-09-21T15:13:58.544Z,102109.31
2022-09-21T15:16:38.827Z,102107.59
2022-09-21T15:19:27.967Z,102103.66
2022-09-21T15:22:17.616Z,102102.50
2022-09-21T15:25:06.036Z,102104.88
2022-09-21T15:27:38.166Z,102098.25
2022-09-21T15:30:20.541Z,102099.00
2022-09-21T15:33:04.865Z,102100.28
2022-09-21T15:35:35.748Z,102100.16
2022-09-21T15:38:02.806Z,102096.78
2022-09-21T15:40:46.306Z,102098.47
2022-09-21T15:43:17.076Z,102100.03
2022-09-21T15:46:02.102Z,102088.16
2022-09-21T15:48:42.293Z,102095.69
2022-09-21T15:51:32.393Z,102088.78
2022-09-21T15:54:20.003Z,102091.41
2022-09-21T15:56:47.509Z,102091.66
2022-09-21T15:59:21.043Z,102097.25
2022-09-21T16:01:53.120Z,102094.38
2022-09-21T16:04:23.580Z,102092.41
2022-09-21T16:07:05.761Z,102097.72
2022-09-21T16:09:45.103Z,102089.53
2022-09-21T16:12:52.079Z,102099.56
2022-09-21T16:15:32.008Z,102097.19
2022-09-21T16:18:07.009Z,102087.13
2022-09-21T16:20:50.778Z,102094.69
2022-09-21T16:23:23.330Z,102100.69
2022-09-21T16:26:01.240Z,102094.75
2022-09-21T16:28:35.731Z,102095.16
2022-09-21T16:31:35.489Z,102093.47
2022-09-21T16:34:18.620Z,102099.47
2022-09-21T16:36:51.729Z,102095.44
2022-09-21T16:39:28.479Z,102100.91
2022-09-21T16:42:01.920Z,102108.50
2022-09-21T16:44:34.702Z,102106.19
2022-09-21T16:47:03.679Z,102104.44
2022-09-21T16:49:36.754Z,102101.91
2022-09-21T16:52:04.147Z,102104.38
2022-09-21T16:54:35.245Z,102098.59
2022-09-21T16:57:06.176Z,102108.03
2022-09-21T16:59:34.818Z,102107.06
2022-09-21T17:02:05.154Z,102107.31
2022-09-21T17:04:36.312Z,102104.88
2022-09-21T17:07:06.976Z,102110.56
2022-09-21T17:09:38.565Z,102112.94
2022-09-21T17:12:08.866Z,102107.47
2022-09-21T17:14:41.809Z,102116.31
2022-09-21T17:17:23.154Z,102110.44
2022-09-21T17:19:54.363Z,102112.75
2022-09-21T17:22:22.132Z,102111.84
2022-09-21T17:24:55.052Z,102107.78
2022-09-21T17:27:29.191Z,102109.97
2022-09-21T17:30:03.611Z,102118.41
2022-09-21T17:32:38.464Z,102110.94
2022-09-21T17:35:39.909Z,102122.88
2022-09-21T17:38:11.275Z,102116.81
2022-09-21T17:40:42.884Z,102121.22
2022-09-21T17:44:00.363Z,102113.03
2022-09-21T17:46:44.690Z,102114.75
2022-09-21T17:49:12.201Z,102118.16
2022-09-21T17:52:00.875Z,102123.16
2022-09-21T17:54:27.981Z,102121.84
2022-09-21T17:57:11.878Z,102128.41
2022-09-21T17:59:42.609Z,102118.00
2022-09-21T18:02:28.071Z,102129.75
2022-09-21T18:05:04.229Z,102122.84
2022-09-21T18:07:33.873Z,102124.06
2022-09-21T18:10:01.159Z,102115.75
2022-09-21T18:12:40.299Z,102117.94
2022-09-21T18:15:46.456Z,102125.72
2022-09-21T18:19:07.439Z,102119.44
2022-09-21T18:21:45.676Z,102123.28
2022-09-21T18:24:31.141Z,102119.34
2022-09-21T18:26:59.732Z,102120.19
2022-09-21T18:29:40.769Z,102122.44
2022-09-21T18:32:40.048Z,102121.91
2022-09-21T18:35:24.388Z,102118.50
2022-09-21T18:38:21.027Z,102123.63
2022-09-21T18:40:53.590Z,102127.72
2022-09-21T18:43:35.150Z,102120.53
2022-09-21T18:46:20.896Z,102119.50
2022-09-21T18:48:59.999Z,102125.97
2022-09-21T18:51:29.858Z,102133.75
2022-09-21T18:53:58.241Z,102131.59
2022-09-21T18:56:37.410Z,102133.84
2022-09-21T18:59:09.291Z,102133.84
2022-09-21T19:01:39.632Z,102135.69
2022-09-21T19:04:07.727Z,102137.69
2022-09-21T19:07:04.953Z,102135.81
2022-09-21T19:10:09.716Z,102130.59
2022-09-21T19:13:27.141Z,102136.75
2022-09-21T19:16:21.468Z,102145.09
2022-09-21T19:18:52.445Z,102145.97
2022-09-21T19:22:07.223Z,102137.38
2022-09-21T19:25:03.690Z,102144.94
2022-09-21T19:28:05.256Z,102140.78
2022-09-21T19:30:32.705Z,102148.78
2022-09-21T19:33:03.946Z,102147.06
2022-09-21T19:35:35.997Z,102149.03
2022-09-21T19:38:06.735Z,102140.41
2022-09-21T19:40:40.362Z,102143.59
2022-09-21T19:43:53.198Z,102143.13
2022-09-21T19:46:46.642Z,102150.63
2022-09-21T19:49:19.847Z,102150.94
2022-09-21T19:51:49.205Z,102147.88
2022-09-21T19:54:38.553Z,102144.84
2022-09-21T19:57:43.167Z,102149.22
2022-09-21T20:00:17.665Z,102152.56
2022-09-21T20:03:31.260Z,102159.66
2022-09-21T20:06:21.518Z,102160.97
2022-09-21T20:09:26.388Z,102166.88
2022-09-21T20:12:03.716Z,102163.69
2022-09-21T20:15:05.366Z,102164.53
2022-09-21T20:18:02.772Z,102162.28
2022-09-21T20:20:30.132Z,102165.56
2022-09-21T20:23:09.448Z,102159.72
2022-09-21T20:25:52.752Z,102160.50
2022-09-21T20:28:22.475Z,102152.94
2022-09-21T20:30:54.499Z,102154.81
2022-09-21T20:33:23.318Z,102159.66
2022-09-21T20:35:55.736Z,102154.81
2022-09-21T20:38:23.250Z,102160.34
2022-09-21T20:40:51.447Z,102157.00
2022-09-21T20:43:19.829Z,102154.75
2022-09-21T20:45:49.537Z,102170.38
2022-09-21T20:48:20.297Z,102157.47
2022-09-21T20:50:49.516Z,102163.22
2022-09-21T20:53:17.624Z,102156.28
2022-09-21T20:55:56.826Z,102152.97
2022-09-21T20:58:25.165Z,102160.09
2022-09-21T21:00:56.447Z,102162.63
2022-09-21T21:03:28.188Z,102162.53
2022-09-21T21:06:11.638Z,102168.75
2022-09-21T21:08:38.643Z,102163.34
2022-09-21T21:11:06.222Z,102162.19
2022-09-21T21:13:35.719Z,102162.88
2022-09-21T21:16:08.176Z,102159.56
2022-09-21T21:18:45.843Z,102168.63
2022-09-21T21:21:12.986Z,102170.78
2022-09-21T21:24:00.690Z,102164.78
2022-09-21T21:26:50.246Z,102169.09
2022-09-21T21:29:14.794Z,102160.53
2022-09-21T21:31:41.934Z,102171.56
2022-09-21T21:34:11.305Z,102172.47
2022-09-21T21:36:42.977Z,102168.19
2022-09-21T21:39:13.463Z,102168.22
2022-09-21T21:41:41.453Z,102164.78
2022-09-21T21:44:15.756Z,102164.34
2022-09-21T21:46:43.447Z,102170.25
2022-09-21T21:49:10.500Z,102159.22
2022-09-21T21:51:39.950Z,102160.41
2022-09-21T21:54:07.390Z,102157.25
2022-09-21T21:56:34.951Z,102154.28
2022-09-21T21:59:02.054Z,102157.28
2022-09-21T22:01:32.019Z,102154.31
2022-09-21T22:04:01.786Z,102156.84
2022-09-21T22:06:34.362Z,102153.13
2022-09-21T22:09:03.045Z,102157.47
2022-09-21T22:11:31.107Z,102161.59
2022-09-21T22:14:01.222Z,102154.72
2022-09-21T22:16:33.872Z,102156.03
2022-09-21T22:19:04.282Z,102160.03
2022-09-21T22:21:35.051Z,102164.88
2022-09-21T22:24:04.992Z,102164.03
2022-09-21T22:26:42.456Z,102158.03
2022-09-21T22:33:18.971Z,102168.34
2022-09-21T22:35:45.916Z,102172.72
2022-09-21T22:38:13.653Z,102166.16
2022-09-21T22:40:44.016Z,102175.41
2022-09-21T22:43:11.346Z,102172.53
2022-09-21T22:45:40.596Z,102170.97
2022-09-21T22:48:09.261Z,102173.28
2022-09-21T22:50:39.100Z,102167.41
2022-09-21T22:53:05.957Z,102161.34
2022-09-21T22:55:35.739Z,102165.06
2022-09-21T22:58:03.440Z,102167.22
2022-09-21T23:00:30.868Z,102162.53
2022-09-21T23:02:58.390Z,102157.38
2022-09-21T23:05:27.793Z,102158.22
2022-09-21T23:07:56.595Z,102158.22
2022-09-21T23:10:26.480Z,102156.53
2022-09-21T23:12:54.247Z,102159.38
2022-09-21T23:15:22.500Z,102161.03
2022-09-21T23:17:51.626Z,102150.31
2022-09-21T23:20:20.955Z,102154.72
2022-09-21T23:22:53.278Z,102147.72
2022-09-21T23:25:20.616Z,102142.56
2022-09-21T23:27:47.764Z,102150.81
2022-09-21T23:30:19.386Z,102141.53
2022-09-21T23:32:47.020Z,102140.78
2022-09-21T23:35:14.126Z,102143.34
2022-09-21T23:37:41.087Z,102140.84
2022-09-21T23:40:09.334Z,102139.59
2022-09-21T23:42:36.531Z,102143.16
2022-09-21T23:45:06.127Z,102133.19
2022-09-21T23:47:33.169Z,102139.44
2022-09-21T23:50:00.145Z,102140.56
2022-09-21T23:52:30.322Z,102140.00
2022-09-21T23:55:01.869Z,102135.88
2022-09-21T23:57:28.850Z,102134.59
2022-09-21T23:59:55.879Z,102136.84
